LIPY Airport Information

Runway Information
Runway 04 Length 9718 ft width 148 ft
Elevation 47 ft Threshold 641 ft Heading 45
Runway 22 Length 9718 ft Width 148 ft
Elevation 29 ft Threshold 492 ft Heading 225
Airport Frequencies
Type APP Name ROMAGNA AP Frequency 37.975 MHZ
Type APP Name ROMAGNA AP Frequency 118.15 MHZ
Type ATIS Name ATIS Frequency 122.85 MHZ
Type TWR Name TWR Frequency 119.8 MHZ
Airport Navaids
Type VOR-DME Name Ancona Frequency 110650 KHZ
Type NDB Name Ancona Frequency 375 KHZ
Type TACAN Name Falconara Frequency 109800 KHZ
Type NDB Name Falconara Frequency 358 KHZ
Airport Weather Information & NOTAM
ADDS - METARS form results

(0329 UTC 20 January 2019)
Data provider http://aviationweather.gov/metar/data/
 
Forecast for: AMD
Text: TAF AMD LIPY 191721Z 1918/2018 32010KT 8000 SCT015 BKN030
Forecast period: 1800 UTC 19 January 2019 to 1800 UTC 20 January 2019
Forecast type: FROM: standard forecast or significant change
Winds: from the NW (320 degrees) at 12 MPH (10 knots; 5.1 m/s)
Visibility: 5 miles (8 km)
Ceiling: 3000 feet AGL
Clouds: scattered clouds at 1500 feet AGL
broken clouds at 3000 feet AGL
Weather: no significant weather forecast for this period
Text: TEMPO 2012/2016 RA
Forecast period: 1200 to 1600 UTC 20 January 2019
Forecast type: TEMPORARY: The following changes expected for less than half the time period
Visibility: missing
Ceiling: unknown
Clouds: missing
Weather: RA  (moderate rain)